createdAt,value
2023-01-13T00:01:36.384Z,12.60
2023-01-13T00:04:21.970Z,12.70
2023-01-13T00:07:07.438Z,12.60
2023-01-13T00:09:53.175Z,12.60
2023-01-13T00:12:39.391Z,12.60
2023-01-13T00:15:24.707Z,12.60
2023-01-13T00:18:10.328Z,12.60
2023-01-13T00:21:03.463Z,12.60
2023-01-13T00:23:49.921Z,12.50
2023-01-13T00:26:36.025Z,12.50
2023-01-13T00:29:21.423Z,12.50
2023-01-13T00:32:07.264Z,12.40
2023-01-13T00:34:53.044Z,12.50
2023-01-13T00:37:39.306Z,12.40
2023-01-13T00:40:24.610Z,12.40
2023-01-13T00:43:25.714Z,12.30
2023-01-13T00:46:12.156Z,12.30
2023-01-13T00:48:57.752Z,12.30
2023-01-13T00:51:43.368Z,12.20
2023-01-13T00:54:28.960Z,12.20
2023-01-13T00:57:15.432Z,12.10
2023-01-13T01:00:00.837Z,12.20
2023-01-13T01:02:46.583Z,12.20
2023-01-13T01:05:33.311Z,12.20
2023-01-13T01:08:18.697Z,12.10
2023-01-13T01:11:14.568Z,12.10
2023-01-13T01:14:01.440Z,12.10
2023-01-13T01:16:47.111Z,12.00
2023-01-13T01:19:32.678Z,12.00
2023-01-13T01:22:18.314Z,12.00
2023-01-13T01:25:04.060Z,12.00
2023-01-13T01:27:49.505Z,11.90
2023-01-13T01:30:35.260Z,11.90
2023-01-13T01:33:21.243Z,11.90
2023-01-13T01:36:06.964Z,11.90
2023-01-13T01:38:52.840Z,11.90
2023-01-13T01:41:38.217Z,12.00
2023-01-13T01:44:42.234Z,12.00
2023-01-13T01:47:28.295Z,12.00
2023-01-13T01:50:14.311Z,11.90
2023-01-13T01:53:02.722Z,11.90
2023-01-13T01:55:48.357Z,11.70
2023-01-13T01:58:49.104Z,11.70
2023-01-13T02:01:34.664Z,11.70
2023-01-13T02:04:25.690Z,11.60
2023-01-13T02:07:11.199Z,11.60
2023-01-13T02:09:58.854Z,11.70
2023-01-13T02:12:45.083Z,11.70
2023-01-13T02:15:30.612Z,11.60
2023-01-13T02:18:25.374Z,11.70
2023-01-13T02:21:39.963Z,11.70
2023-01-13T02:24:56.384Z,11.80
2023-01-13T02:27:57.350Z,11.70
2023-01-13T02:31:01.803Z,11.80
2023-01-13T02:33:53.181Z,11.80
2023-01-13T02:36:38.507Z,11.80
2023-01-13T02:39:30.516Z,11.80
2023-01-13T02:42:42.336Z,11.80
2023-01-13T02:45:43.151Z,11.80
2023-01-13T02:48:29.871Z,11.70
2023-01-13T02:51:17.424Z,11.70
2023-01-13T02:54:06.157Z,11.60
2023-01-13T02:56:54.262Z,11.60
2023-01-13T02:59:40.837Z,11.50
2023-01-13T03:02:26.577Z,11.60
2023-01-13T03:05:14.579Z,11.60
2023-01-13T03:08:18.887Z,11.60
2023-01-13T03:11:04.422Z,11.50
2023-01-13T03:14:02.179Z,11.60
2023-01-13T03:17:01.659Z,11.60
2023-01-13T03:19:47.050Z,11.50
2023-01-13T03:22:47.965Z,11.50
2023-01-13T03:25:39.306Z,11.50
2023-01-13T03:28:27.867Z,11.50
2023-01-13T03:31:16.249Z,11.40
2023-01-13T03:34:04.541Z,11.50
2023-01-13T03:36:53.122Z,11.40
2023-01-13T03:39:39.838Z,11.50
2023-01-13T03:42:26.463Z,11.50
2023-01-13T03:45:16.693Z,11.40
2023-01-13T03:48:06.824Z,11.30
2023-01-13T03:50:53.785Z,11.30
2023-01-13T03:53:40.980Z,11.40
2023-01-13T03:56:31.219Z,13.70
2023-01-13T03:59:19.333Z,11.50
2023-01-13T04:02:10.795Z,11.50
2023-01-13T04:04:56.401Z,11.50
2023-01-13T04:08:00.907Z,11.40
2023-01-13T04:10:53.267Z,11.40
2023-01-13T04:13:40.280Z,11.40
2023-01-13T04:16:25.988Z,11.40
2023-01-13T04:19:11.360Z,11.40
2023-01-13T04:21:57.039Z,11.30
2023-01-13T04:24:42.722Z,11.40
2023-01-13T04:27:28.262Z,11.40
2023-01-13T04:30:13.872Z,11.30
2023-01-13T04:32:59.647Z,11.40
2023-01-13T04:35:45.571Z,11.40
2023-01-13T04:38:31.323Z,11.30
2023-01-13T04:41:16.859Z,11.20
2023-01-13T04:44:02.404Z,11.30
2023-01-13T04:46:48.094Z,11.20
2023-01-13T04:49:33.892Z,11.10
2023-01-13T04:52:19.358Z,11.10
2023-01-13T04:55:05.103Z,11.10
2023-01-13T04:57:50.608Z,11.10
2023-01-13T05:00:36.861Z,11.10
2023-01-13T05:03:24.325Z,11.00
2023-01-13T05:06:09.824Z,11.00
2023-01-13T05:08:55.480Z,11.10
2023-01-13T05:11:59.733Z,11.10
2023-01-13T05:15:03.905Z,11.10
2023-01-13T05:17:49.857Z,11.20
2023-01-13T05:20:35.648Z,11.10
2023-01-13T05:23:39.983Z,11.10
2023-01-13T05:26:25.461Z,11.10
2023-01-13T05:29:11.137Z,11.00
2023-01-13T05:31:56.660Z,11.00
2023-01-13T05:34:42.212Z,11.00
2023-01-13T05:37:28.017Z,11.00
2023-01-13T05:40:33.160Z,11.10
2023-01-13T05:43:19.918Z,11.00
2023-01-13T05:46:07.975Z,11.00
2023-01-13T05:48:53.610Z,11.00
2023-01-13T05:51:39.018Z,11.00
2023-01-13T05:54:24.715Z,10.90
2023-01-13T05:57:10.200Z,10.90
2023-01-13T05:59:56.002Z,11.00
2023-01-13T06:02:41.699Z,11.10
2023-01-13T06:05:27.190Z,10.90
2023-01-13T06:08:13.222Z,10.80
2023-01-13T06:10:58.572Z,10.80
2023-01-13T06:13:44.279Z,10.90
2023-01-13T06:16:29.842Z,10.90
2023-01-13T06:19:15.540Z,10.80
2023-01-13T06:22:03.892Z,10.90
2023-01-13T06:24:49.681Z,10.90
2023-01-13T06:27:35.412Z,10.80
2023-01-13T06:30:21.042Z,10.80
2023-01-13T06:33:10.611Z,10.70
2023-01-13T06:35:58.183Z,10.70
2023-01-13T06:38:45.436Z,10.70
2023-01-13T06:41:52.550Z,10.80
2023-01-13T06:44:38.022Z,11.00
2023-01-13T06:47:23.690Z,11.40
2023-01-13T06:50:10.052Z,11.70
2023-01-13T06:52:55.357Z,12.00
2023-01-13T06:55:40.816Z,12.20
2023-01-13T06:58:26.679Z,12.40
2023-01-13T07:01:12.095Z,12.60
2023-01-13T07:03:58.376Z,12.70
2023-01-13T07:06:43.681Z,12.80
2023-01-13T07:09:29.265Z,12.90
2023-01-13T07:12:15.137Z,12.90
2023-01-13T07:15:18.791Z,13.00
2023-01-13T07:18:04.539Z,13.10
2023-01-13T07:20:54.040Z,13.10
2023-01-13T07:23:40.902Z,13.20
2023-01-13T07:26:26.519Z,13.30
2023-01-13T07:29:12.429Z,13.30
2023-01-13T07:31:57.715Z,13.30
2023-01-13T07:34:43.733Z,13.30
2023-01-13T07:37:29.091Z,13.40
2023-01-13T07:40:14.599Z,13.40
2023-01-13T07:43:19.005Z,13.40
2023-01-13T07:46:05.763Z,13.40
2023-01-13T07:48:51.064Z,13.50
2023-01-13T07:51:38.403Z,13.50
2023-01-13T07:54:39.077Z,13.50
2023-01-13T07:57:24.865Z,13.50
2023-01-13T08:00:12.854Z,13.60
2023-01-13T08:03:00.100Z,13.50
2023-01-13T08:05:45.828Z,13.60
2023-01-13T08:08:31.238Z,13.50
2023-01-13T08:11:16.846Z,13.50
2023-01-13T08:14:02.407Z,13.50
2023-01-13T08:16:47.924Z,13.60
2023-01-13T08:19:33.550Z,13.60
2023-01-13T08:22:19.289Z,13.60
2023-01-13T08:25:05.162Z,13.60
2023-01-13T08:27:50.797Z,13.60
2023-01-13T08:30:36.798Z,13.60
2023-01-13T08:33:22.027Z,13.60
2023-01-13T08:36:08.339Z,13.60
2023-01-13T08:38:53.981Z,13.70
2023-01-13T08:41:58.750Z,13.60
2023-01-13T08:44:44.716Z,13.70
2023-01-13T08:47:30.432Z,13.70
2023-01-13T08:50:16.072Z,13.70
2023-01-13T08:53:01.481Z,13.60
2023-01-13T08:55:46.929Z,13.60
2023-01-13T08:58:32.379Z,13.60
2023-01-13T09:01:21.576Z,13.60
2023-01-13T09:04:08.336Z,13.60
2023-01-13T09:06:54.787Z,13.60
2023-01-13T09:09:40.453Z,13.50
2023-01-13T09:12:52.426Z,13.50
2023-01-13T09:15:38.782Z,13.50
2023-01-13T09:18:24.397Z,13.50
2023-01-13T09:21:10.785Z,13.50
2023-01-13T09:23:56.140Z,13.50
2023-01-13T09:26:41.931Z,13.50
2023-01-13T09:29:27.630Z,13.50
2023-01-13T09:32:14.305Z,13.50
2023-01-13T09:35:02.965Z,13.50
2023-01-13T09:37:48.779Z,13.50
2023-01-13T09:40:36.797Z,13.50
2023-01-13T09:43:50.357Z,13.50
2023-01-13T09:46:51.441Z,13.50
2023-01-13T09:49:38.619Z,13.50
2023-01-13T09:52:26.930Z,13.50
2023-01-13T09:55:30.063Z,13.50
2023-01-13T09:58:16.893Z,13.50
2023-01-13T10:01:02.612Z,13.50
2023-01-13T10:03:49.416Z,13.50
2023-01-13T10:06:36.933Z,13.50
2023-01-13T10:09:55.029Z,13.50
2023-01-13T10:12:59.304Z,13.50
2023-01-13T10:15:50.848Z,13.50
2023-01-13T10:18:55.121Z,13.50
2023-01-13T10:21:50.116Z,13.50
2023-01-13T10:24:41.813Z,13.50
2023-01-13T10:27:32.739Z,13.50
2023-01-13T10:30:19.121Z,13.50
2023-01-13T10:33:12.478Z,13.50
2023-01-13T10:36:02.448Z,13.50
2023-01-13T10:38:49.304Z,13.50
2023-01-13T10:41:36.315Z,13.50
2023-01-13T10:44:21.879Z,13.50
2023-01-13T10:47:18.103Z,13.50
2023-01-13T10:50:09.316Z,13.50
2023-01-13T10:52:58.697Z,13.50
2023-01-13T10:55:57.798Z,13.50
2023-01-13T10:58:43.343Z,13.50
2023-01-13T11:01:30.505Z,13.50
2023-01-13T11:04:26.695Z,13.50
2023-01-13T11:07:22.107Z,13.50
2023-01-13T11:10:16.981Z,13.50
2023-01-13T11:13:16.541Z,13.60
2023-01-13T11:16:08.014Z,13.60
2023-01-13T11:19:11.717Z,13.60
2023-01-13T11:22:06.054Z,13.70
2023-01-13T11:24:51.803Z,13.70
2023-01-13T11:27:43.509Z,13.80
2023-01-13T11:30:35.244Z,13.90
2023-01-13T11:33:42.872Z,13.90
2023-01-13T11:36:33.735Z,13.90
2023-01-13T11:39:34.486Z,13.90
2023-01-13T11:42:24.243Z,14.00
2023-01-13T11:45:22.158Z,14.00
2023-01-13T11:48:12.404Z,14.00
2023-01-13T11:51:04.598Z,13.90
2023-01-13T11:54:06.240Z,13.90
2023-01-13T11:57:14.619Z,13.90
2023-01-13T12:00:00.352Z,13.90
2023-01-13T12:02:48.971Z,13.80
2023-01-13T12:05:34.843Z,13.80
2023-01-13T12:08:39.203Z,13.80
2023-01-13T12:11:31.055Z,13.80
2023-01-13T12:14:23.984Z,13.80
2023-01-13T12:17:15.861Z,13.80
2023-01-13T12:20:08.646Z,13.80
2023-01-13T12:22:55.720Z,13.80
2023-01-13T12:25:43.919Z,13.70
2023-01-13T12:28:36.206Z,13.80
2023-01-13T12:31:22.222Z,13.70
2023-01-13T12:34:21.013Z,13.80
2023-01-13T12:37:09.713Z,13.70
2023-01-13T12:40:14.057Z,13.70
2023-01-13T12:43:47.653Z,13.70
2023-01-13T12:46:33.995Z,13.70
2023-01-13T12:49:21.108Z,13.70
2023-01-13T12:52:07.841Z,13.70
2023-01-13T12:54:53.817Z,13.70
2023-01-13T12:57:40.203Z,13.70
2023-01-13T13:00:31.614Z,13.70
2023-01-13T13:03:29.390Z,13.60
2023-01-13T13:06:23.240Z,13.60
2023-01-13T13:09:14.818Z,13.70
2023-01-13T13:12:38.751Z,13.60
2023-01-13T13:15:28.294Z,13.60
2023-01-13T13:18:16.682Z,13.70
2023-01-13T13:21:09.244Z,13.70
2023-01-13T13:24:00.961Z,13.70
2023-01-13T13:26:46.837Z,13.70
2023-01-13T13:29:44.737Z,13.70
2023-01-13T13:32:39.619Z,13.70
2023-01-13T13:35:44.117Z,13.80
2023-01-13T13:38:48.498Z,13.80
2023-01-13T13:41:54.382Z,13.80
2023-01-13T13:45:15.581Z,13.90
2023-01-13T13:48:18.407Z,14.10
2023-01-13T13:51:21.196Z,14.20
2023-01-13T13:54:08.916Z,14.30
2023-01-13T13:56:54.625Z,14.40
2023-01-13T13:59:40.176Z,14.50
2023-01-13T14:02:29.895Z,14.60
2023-01-13T14:05:20.282Z,14.60
2023-01-13T14:08:15.839Z,14.70
2023-01-13T14:11:01.825Z,14.70
2023-01-13T14:14:00.142Z,14.80
2023-01-13T14:16:46.508Z,15.00
2023-01-13T14:19:33.492Z,14.90
2023-01-13T14:22:19.500Z,15.00
2023-01-13T14:25:24.889Z,15.00
2023-01-13T14:28:17.404Z,15.10
2023-01-13T14:31:04.266Z,15.10
2023-01-13T14:33:51.569Z,15.10
2023-01-13T14:36:37.714Z,15.10
2023-01-13T14:39:23.879Z,15.10
2023-01-13T14:42:13.548Z,15.10
2023-01-13T14:44:58.949Z,15.10
2023-01-13T14:47:50.754Z,15.10
2023-01-13T14:50:36.593Z,15.10
2023-01-13T14:53:27.376Z,15.20
2023-01-13T14:56:31.381Z,15.10
2023-01-13T14:59:35.963Z,15.10
2023-01-13T15:02:24.896Z,15.10
2023-01-13T15:05:19.725Z,15.10
2023-01-13T15:08:11.624Z,17.60
2023-01-13T15:11:01.161Z,15.10
2023-01-13T15:13:53.366Z,15.10
2023-01-13T15:16:39.253Z,15.10
2023-01-13T15:19:24.798Z,15.20
2023-01-13T15:22:10.271Z,15.20
2023-01-13T15:24:56.959Z,15.20
2023-01-13T15:27:43.777Z,15.20
2023-01-13T15:30:29.161Z,15.20
2023-01-13T15:33:14.896Z,15.20
2023-01-13T15:36:01.831Z,15.30
2023-01-13T15:38:47.221Z,15.30
2023-01-13T15:41:51.612Z,15.30
2023-01-13T15:44:55.532Z,15.30
2023-01-13T15:47:41.472Z,15.30
2023-01-13T15:50:27.421Z,15.30
2023-01-13T15:53:14.439Z,15.30
2023-01-13T15:56:00.458Z,15.30
2023-01-13T15:58:45.852Z,15.40
2023-01-13T16:01:31.587Z,15.30
2023-01-13T16:04:17.403Z,15.30
2023-01-13T16:07:02.880Z,15.30
2023-01-13T16:09:48.713Z,15.30
2023-01-13T16:12:34.475Z,15.30
2023-01-13T16:15:22.919Z,15.30
2023-01-13T16:18:14.379Z,15.30
2023-01-13T16:20:59.913Z,15.30
2023-01-13T16:23:45.595Z,15.30
2023-01-13T16:26:32.703Z,15.20
2023-01-13T16:29:18.534Z,15.20
2023-01-13T16:32:04.222Z,15.20
2023-01-13T16:34:50.124Z,15.30
2023-01-13T16:37:35.618Z,15.30
2023-01-13T16:40:24.497Z,15.30
2023-01-13T16:43:12.484Z,15.30
2023-01-13T16:45:58.290Z,15.20
2023-01-13T16:48:43.792Z,15.30
2023-01-13T16:51:29.573Z,15.20
2023-01-13T16:54:15.391Z,15.20
2023-01-13T16:57:00.752Z,15.20
2023-01-13T16:59:46.546Z,15.20
2023-01-13T17:02:32.464Z,15.20
2023-01-13T17:05:17.898Z,15.10
2023-01-13T17:08:03.633Z,15.20
2023-01-13T17:10:50.843Z,15.10
2023-01-13T17:13:36.191Z,15.20
2023-01-13T17:16:22.699Z,15.10
2023-01-13T17:19:08.484Z,15.20
2023-01-13T17:21:53.960Z,15.20
2023-01-13T17:24:39.589Z,15.20
2023-01-13T17:27:25.971Z,15.30
2023-01-13T17:30:12.161Z,15.30
2023-01-13T17:32:57.494Z,15.30
2023-01-13T17:35:43.181Z,15.30
2023-01-13T17:38:28.785Z,15.30
2023-01-13T17:41:14.460Z,15.30
2023-01-13T17:44:00.270Z,15.30
2023-01-13T17:46:46.018Z,15.30
2023-01-13T17:49:31.576Z,15.30
2023-01-13T17:52:17.167Z,15.30
2023-01-13T17:55:02.815Z,15.30
2023-01-13T17:57:48.730Z,15.30
2023-01-13T18:00:34.621Z,15.30
2023-01-13T18:06:07.773Z,15.40
2023-01-13T18:08:53.623Z,15.40
2023-01-13T18:11:39.035Z,15.30
2023-01-13T18:14:24.831Z,15.30
2023-01-13T18:20:15.694Z,15.30
2023-01-13T18:26:34.225Z,15.20
2023-01-13T18:29:19.727Z,15.30
2023-01-13T18:35:04.733Z,15.30
2023-01-13T18:37:52.232Z,15.30
2023-01-13T18:40:37.623Z,15.30
2023-01-13T18:43:23.313Z,15.20
2023-01-13T18:46:08.897Z,15.30
2023-01-13T18:48:54.472Z,15.30
2023-01-13T18:51:40.212Z,15.30
2023-01-13T18:54:25.776Z,19.60
2023-01-13T18:57:11.620Z,15.30
2023-01-13T18:59:57.656Z,15.30
2023-01-13T19:02:44.048Z,15.30
2023-01-13T19:05:29.698Z,15.20
2023-01-13T19:08:15.694Z,15.30
2023-01-13T19:11:05.103Z,15.30
2023-01-13T19:13:51.540Z,15.30
2023-01-13T19:16:36.763Z,15.30
2023-01-13T19:19:22.500Z,15.30
2023-01-13T19:22:08.308Z,15.30
2023-01-13T19:24:53.693Z,15.30
2023-01-13T19:27:39.887Z,15.30
2023-01-13T19:30:25.473Z,15.30
2023-01-13T19:33:11.181Z,15.30
2023-01-13T19:35:57.032Z,15.30
2023-01-13T19:38:42.547Z,15.30
2023-01-13T19:41:46.976Z,15.30
2023-01-13T19:44:50.907Z,15.30
2023-01-13T19:47:38.494Z,15.30
2023-01-13T19:50:24.776Z,15.40
2023-01-13T19:53:16.016Z,15.40
2023-01-13T19:56:01.707Z,15.30
2023-01-13T20:01:40.491Z,15.20
2023-01-13T20:04:33.887Z,15.10
2023-01-13T20:07:19.301Z,15.00
2023-01-13T20:15:40.686Z,14.80
2023-01-13T20:18:26.409Z,14.80
2023-01-13T20:21:11.900Z,14.80
2023-01-13T20:23:57.485Z,14.80
2023-01-13T20:26:43.864Z,14.80
2023-01-13T20:32:15.297Z,14.80
2023-01-13T20:35:00.939Z,14.70
2023-01-13T20:37:46.535Z,14.70
2023-01-13T20:43:18.059Z,14.70
2023-01-13T20:46:03.841Z,14.80
2023-01-13T20:48:49.567Z,14.80
2023-01-13T20:54:21.634Z,14.80
2023-01-13T20:57:09.590Z,14.80
2023-01-13T20:59:54.888Z,14.80
2023-01-13T21:02:41.788Z,14.80
2023-01-13T21:11:02.750Z,14.80
2023-01-13T21:16:54.314Z,14.70
2023-01-13T21:19:40.069Z,14.70
2023-01-13T21:33:40.411Z,14.70
2023-01-13T21:42:18.257Z,14.70
2023-01-13T21:45:22.318Z,14.70
2023-01-13T21:48:07.709Z,14.70
2023-01-13T21:50:53.561Z,14.70
2023-01-13T21:56:25.264Z,14.70
2023-01-13T22:16:50.152Z,14.70
2023-01-13T22:19:39.149Z,14.70
2023-01-13T22:25:11.951Z,14.70
2023-01-13T22:33:39.505Z,14.70
2023-01-13T22:36:24.842Z,14.70
2023-01-13T23:20:47.913Z,11.40
2023-01-13T23:23:34.101Z,11.50
2023-01-13T23:26:19.899Z,11.40
2023-01-13T23:29:07.001Z,11.10
